Pavonia, Ohio
Current Conditions -  °F | °C
As of 5:52 AM on Wednesday 26 Nov 2014 (Local Time) from KMFD Reporting Station
Overcast Overcast  
Wind Chill: 22°   Ceiling: 1500
Heat Index: 28°   Visibility: 10mi
Dew Point: 22°   Wind: 6mph
Humidity: 78%   Direction: 350°N
Pressure: 30.1"   Gusts: NA
Location:  40.7789°N, 82.5216°W
Report Text: KMFD 261052Z AUTO 35005KT 10SM OVC015 M02/M06 A3010 RMK AO2 SLP207 T10221056
Loading
Personal Weather Stations






























Interactive Weather Map New forecast layout! Learn more

10-Day Weather Forecast

Advertisements
Track Severe Weather on mobile